X  Fechar Dados meteorológicos de METAR da aviação     EDDK Cologne Bonn Airport
Temperatura
5°C Temperatura
4°C Ponto de orvalho
93% Umidade



Vento
9 MPH
14 KM/H
4 M/S
8 NÓS



320°
NO
Condições atuais

Muito nublado Muito nublado
Pressão 1009.82 (hPa) - 29.82 (inHg)
Visibilidade 5 (milha) - 8 (km)
Aeroporto
Código do aeroporto EDDK

Localização: Cologne Bonn Airport
Distância: 56 (mi)

Metar:
EDDK 170250Z AUTO 32008KT 8000 BKN008 05/04 Q1010 NOSIG

Hora: 2024-04-17 04:50 CEST